createdAt,value
2018-08-30T00:00:53.773Z,95256.30
2018-08-30T00:03:20.412Z,95254.97
2018-08-30T00:05:47.099Z,95255.41
2018-08-30T00:08:13.765Z,95260.48
2018-08-30T00:10:40.495Z,95258.66
2018-08-30T00:13:07.236Z,95252.73
2018-08-30T00:15:33.888Z,95250.14
2018-08-30T00:18:00.550Z,95250.14
2018-08-30T00:20:27.265Z,95246.86
2018-08-30T00:22:56.573Z,95254.85
2018-08-30T00:25:23.254Z,95250.84
2018-08-30T00:27:49.925Z,95251.66
2018-08-30T00:30:16.573Z,95248.69
2018-08-30T00:32:43.298Z,95252.87
2018-08-30T00:35:09.956Z,95255.72
2018-08-30T00:37:36.593Z,95239.36
2018-08-30T00:40:03.284Z,95243.55
2018-08-30T00:42:29.950Z,95239.42
2018-08-30T00:44:56.635Z,95236.52
2018-08-30T00:47:23.282Z,95239.19
2018-08-30T00:49:49.937Z,95242.09
2018-08-30T00:52:16.575Z,95242.23
2018-08-30T00:54:43.229Z,95234.52
2018-08-30T00:57:09.896Z,95242.41
2018-08-30T00:59:36.532Z,95236.66
2018-08-30T01:02:03.242Z,95239.13
2018-08-30T01:04:30.585Z,95232.70
2018-08-30T01:07:00.467Z,95237.09
2018-08-30T01:09:27.109Z,95236.08
2018-08-30T01:11:53.753Z,95230.01
2018-08-30T01:14:20.706Z,95227.59
2018-08-30T01:16:47.360Z,95231.58
2018-08-30T01:19:14.097Z,95234.74
2018-08-30T01:21:40.729Z,95233.44
2018-08-30T01:24:07.364Z,95231.84
2018-08-30T01:26:34.016Z,95232.22
2018-08-30T01:29:00.732Z,95229.69
2018-08-30T01:31:27.332Z,95229.42
2018-08-30T01:33:54.006Z,95227.39
2018-08-30T01:36:20.787Z,95223.47
2018-08-30T01:38:47.470Z,95228.30
2018-08-30T01:41:15.656Z,95225.77
2018-08-30T01:43:40.804Z,95227.83
2018-08-30T01:46:07.442Z,95238.31
2018-08-30T01:48:34.093Z,95232.97
2018-08-30T01:51:00.761Z,95229.89
2018-08-30T01:53:27.492Z,95230.27
2018-08-30T01:55:54.173Z,95233.98
2018-08-30T01:58:20.816Z,95235.27
2018-08-30T02:00:47.578Z,95234.83
2018-08-30T02:03:17.417Z,95234.89
2018-08-30T02:05:44.050Z,95232.09
2018-08-30T02:08:10.684Z,95227.97
2018-08-30T02:10:37.380Z,95231.52
2018-08-30T02:13:04.032Z,95239.27
2018-08-30T02:15:30.675Z,95238.37
2018-08-30T02:17:57.416Z,95239.44
2018-08-30T02:20:24.092Z,95235.75
2018-08-30T02:22:50.725Z,95234.39
2018-08-30T02:25:17.473Z,95231.19
2018-08-30T02:27:44.126Z,95232.65
2018-08-30T02:30:10.763Z,95233.31
2018-08-30T02:32:37.449Z,95231.52
2018-08-30T02:35:05.452Z,95231.97
2018-08-30T02:37:30.790Z,95239.06
2018-08-30T02:39:57.427Z,95232.67
2018-08-30T02:42:24.143Z,95234.88
2018-08-30T02:44:50.825Z,95228.38
2018-08-30T02:47:17.521Z,95231.13
2018-08-30T02:49:44.170Z,95237.46
2018-08-30T02:52:10.855Z,95238.13
2018-08-30T02:54:37.489Z,95237.42
2018-08-30T02:57:04.193Z,95237.28
2018-08-30T02:59:30.823Z,95241.09
2018-08-30T03:01:57.511Z,95241.84
2018-08-30T03:04:24.174Z,95232.34
2018-08-30T03:06:50.813Z,95235.25
2018-08-30T03:09:17.527Z,95237.81
2018-08-30T03:11:44.158Z,95246.09
2018-08-30T03:14:10.801Z,95248.64
2018-08-30T03:16:37.478Z,95248.05
2018-08-30T03:19:04.202Z,95246.41
2018-08-30T03:21:33.886Z,95242.86
2018-08-30T03:24:01.919Z,95245.13
2018-08-30T03:26:27.204Z,95246.72
2018-08-30T03:28:53.852Z,95245.47
2018-08-30T03:31:20.490Z,95250.95
2018-08-30T03:33:47.178Z,95250.94
2018-08-30T03:36:13.834Z,95253.36
2018-08-30T03:38:40.594Z,95247.61
2018-08-30T03:41:07.308Z,95258.52
2018-08-30T03:43:33.923Z,95262.73
2018-08-30T03:46:00.590Z,95259.09
2018-08-30T03:48:27.227Z,95268.70
2018-08-30T03:50:53.922Z,95256.06
2018-08-30T03:53:20.557Z,95250.42
2018-08-30T03:55:47.213Z,95259.01
2018-08-30T03:58:16.843Z,95261.67
2018-08-30T04:00:43.494Z,95262.31
2018-08-30T04:03:10.137Z,95261.47
2018-08-30T04:05:37.787Z,95262.81
2018-08-30T04:08:03.467Z,95269.52
2018-08-30T04:10:30.130Z,95266.04
2018-08-30T04:12:56.776Z,95270.36
2018-08-30T04:15:23.440Z,95266.05
2018-08-30T04:17:50.159Z,95272.84
2018-08-30T04:20:16.811Z,95275.41
2018-08-30T04:22:43.492Z,95269.33
2018-08-30T04:25:10.121Z,95274.42
2018-08-30T04:27:36.802Z,95277.88
2018-08-30T04:30:03.452Z,95275.84
2018-08-30T04:32:30.084Z,95278.44
2018-08-30T04:34:56.720Z,95278.20
2018-08-30T04:37:23.373Z,95277.50
2018-08-30T04:39:50.009Z,95283.02
2018-08-30T04:42:16.761Z,95285.80
2018-08-30T04:44:43.383Z,95288.55
2018-08-30T04:47:11.329Z,95282.23
2018-08-30T04:49:36.744Z,95287.98
2018-08-30T04:52:03.440Z,95284.33
2018-08-30T04:54:33.384Z,95287.02
2018-08-30T04:57:00.060Z,95290.87
2018-08-30T04:59:26.708Z,95293.48
2018-08-30T05:01:56.539Z,95279.48
2018-08-30T05:04:23.248Z,95291.95
2018-08-30T05:06:49.900Z,95289.00
2018-08-30T05:09:16.554Z,95286.19
2018-08-30T05:11:43.224Z,95287.54
2018-08-30T05:14:09.891Z,95289.20
2018-08-30T05:16:36.518Z,95284.36
2018-08-30T05:19:03.203Z,95287.16
2018-08-30T05:21:31.196Z,95286.16
2018-08-30T05:23:59.502Z,95287.80
2018-08-30T05:26:26.166Z,95294.66
2018-08-30T05:28:52.792Z,95288.06
2018-08-30T05:31:19.447Z,95285.77
2018-08-30T05:33:46.101Z,95285.09
2018-08-30T05:36:12.758Z,95288.12
2018-08-30T05:38:39.422Z,95285.77
2018-08-30T05:41:06.071Z,95285.39
2018-08-30T05:43:32.702Z,95287.42
2018-08-30T05:45:59.366Z,95284.83
2018-08-30T05:48:25.998Z,95276.88
2018-08-30T05:50:52.722Z,95284.39
2018-08-30T05:53:19.445Z,95280.27
2018-08-30T05:55:46.198Z,95275.94
2018-08-30T05:58:12.918Z,95275.70
2018-08-30T06:00:39.760Z,95278.22
2018-08-30T06:03:06.444Z,95277.20
2018-08-30T06:05:36.397Z,95280.44
2018-08-30T06:08:03.056Z,95279.05
2018-08-30T06:10:29.718Z,95279.51
2018-08-30T06:12:59.297Z,95271.86
2018-08-30T06:15:25.952Z,95272.77
2018-08-30T06:17:52.708Z,95272.75
2018-08-30T06:20:19.441Z,95277.36
2018-08-30T06:22:46.063Z,95282.09
2018-08-30T06:25:12.734Z,95282.02
2018-08-30T06:27:39.348Z,95289.91
2018-08-30T06:30:05.989Z,95290.80
2018-08-30T06:32:32.645Z,95288.44
2018-08-30T06:34:59.285Z,95288.57
2018-08-30T06:37:25.949Z,95290.55
2018-08-30T06:39:53.943Z,95287.55
2018-08-30T06:42:19.277Z,95291.96
2018-08-30T06:44:45.965Z,95290.45
2018-08-30T06:47:12.785Z,95296.84
2018-08-30T06:49:39.497Z,95294.93
2018-08-30T06:52:06.229Z,95295.95
2018-08-30T06:54:32.903Z,95298.79
2018-08-30T06:56:59.541Z,95302.43
2018-08-30T06:59:26.200Z,95297.22
2018-08-30T07:01:52.842Z,95293.22
2018-08-30T07:04:19.653Z,95299.31
2018-08-30T07:06:46.290Z,95296.70
2018-08-30T07:09:12.933Z,95302.86
2018-08-30T07:11:39.590Z,95293.42
2018-08-30T07:14:06.226Z,95296.37
2018-08-30T07:16:33.010Z,95303.14
2018-08-30T07:18:59.734Z,95301.83
2018-08-30T07:21:26.383Z,95302.76
2018-08-30T07:23:56.433Z,95303.09
2018-08-30T07:26:23.108Z,95304.78
2018-08-30T07:28:49.749Z,95298.08
2018-08-30T07:31:16.433Z,95301.47
2018-08-30T07:33:43.088Z,95303.09
2018-08-30T07:36:09.748Z,95307.73
2018-08-30T07:38:39.002Z,95305.64
2018-08-30T07:41:05.662Z,95309.25
2018-08-30T07:43:32.315Z,95308.81
2018-08-30T07:45:59.002Z,95313.26
2018-08-30T07:48:25.660Z,95305.37
2018-08-30T07:50:52.436Z,95308.95
2018-08-30T07:53:19.108Z,95309.77
2018-08-30T07:55:45.786Z,95312.90
2018-08-30T07:58:12.399Z,95307.92
2018-08-30T08:00:39.140Z,95304.47
2018-08-30T08:03:05.797Z,95306.51
2018-08-30T08:05:32.461Z,95303.06
2018-08-30T08:07:59.245Z,95313.98
2018-08-30T08:10:29.290Z,95304.08
2018-08-30T08:12:56.074Z,95302.53
2018-08-30T08:15:22.710Z,95301.84
2018-08-30T08:17:49.523Z,95302.63
2018-08-30T08:20:17.174Z,95298.73
2018-08-30T08:22:42.861Z,95289.83
2018-08-30T08:25:10.012Z,95293.95
2018-08-30T08:27:36.648Z,95295.75
2018-08-30T08:30:03.296Z,95297.25
2018-08-30T08:32:29.977Z,95294.10
2018-08-30T08:34:56.665Z,95288.44
2018-08-30T08:37:23.277Z,95285.83
2018-08-30T08:39:51.262Z,95279.66
2018-08-30T08:42:16.575Z,95278.03
2018-08-30T08:44:43.294Z,95274.70
2018-08-30T08:47:09.895Z,95272.84
2018-08-30T08:49:36.591Z,95270.60
2018-08-30T08:52:03.286Z,95269.23
2018-08-30T08:54:29.931Z,95267.42
2018-08-30T08:56:56.672Z,95269.56
2018-08-30T08:59:23.388Z,95269.49
2018-08-30T09:01:50.064Z,95266.14
2018-08-30T09:04:16.726Z,95266.89
2018-08-30T09:06:43.383Z,95264.70
2018-08-30T09:09:10.034Z,95268.66
2018-08-30T09:11:36.726Z,95262.41
2018-08-30T09:14:03.338Z,95260.22
2018-08-30T09:16:30.024Z,95261.40
2018-08-30T09:18:56.660Z,95257.04
2018-08-30T09:21:23.302Z,95259.52
2018-08-30T09:23:49.963Z,95253.73
2018-08-30T09:26:16.626Z,95265.44
2018-08-30T09:28:43.368Z,95268.14
2018-08-30T09:31:10.098Z,95266.92
2018-08-30T09:33:36.781Z,95266.05
2018-08-30T09:36:03.420Z,95262.27
2018-08-30T09:38:30.327Z,95260.41
2018-08-30T09:40:56.967Z,95250.31
2018-08-30T09:43:23.703Z,95250.71
2018-08-30T09:45:50.365Z,95253.20
2018-08-30T09:48:17.053Z,95241.66
2018-08-30T09:50:43.684Z,95236.56
2018-08-30T09:53:10.470Z,95235.19
2018-08-30T09:55:37.183Z,95235.34
2018-08-30T09:58:03.885Z,95231.33
2018-08-30T10:00:30.630Z,95231.76
2018-08-30T10:02:57.346Z,95233.02
2018-08-30T10:05:24.001Z,95230.84
2018-08-30T10:07:50.720Z,95240.51
2018-08-30T10:10:17.334Z,95232.79
2018-08-30T10:12:44.033Z,95229.52
2018-08-30T10:15:10.853Z,95229.48
2018-08-30T10:17:37.602Z,95224.02
2018-08-30T10:20:04.291Z,95219.99
2018-08-30T10:22:30.929Z,95226.88
2018-08-30T10:24:57.584Z,95220.30
2018-08-30T10:27:24.259Z,95222.54
2018-08-30T10:29:51.007Z,95221.53
2018-08-30T10:32:17.744Z,95215.39
2018-08-30T10:34:45.862Z,95209.23
2018-08-30T10:37:11.230Z,95212.08
2018-08-30T10:39:37.983Z,95201.99
2018-08-30T10:42:04.686Z,95203.23
2018-08-30T10:44:31.290Z,95196.72
2018-08-30T10:46:57.952Z,95201.04
2018-08-30T10:49:24.678Z,95195.79
2018-08-30T10:51:51.297Z,95192.78
2018-08-30T10:54:18.036Z,95196.22
2018-08-30T10:56:46.322Z,95199.27
2018-08-30T10:59:11.377Z,95202.78
2018-08-30T11:01:38.104Z,95195.30
2018-08-30T11:04:04.809Z,95198.67
2018-08-30T11:06:31.443Z,95191.80
2018-08-30T11:08:58.145Z,95192.57
2018-08-30T11:11:25.871Z,95190.93
2018-08-30T11:13:52.670Z,95189.84
2018-08-30T11:16:19.311Z,95185.89
2018-08-30T11:18:45.954Z,95184.03
2018-08-30T11:21:12.650Z,95180.84
2018-08-30T11:23:39.676Z,95182.00
2018-08-30T11:26:07.959Z,95178.06
2018-08-30T11:28:33.010Z,95173.86
2018-08-30T11:30:59.931Z,95167.01
2018-08-30T11:33:26.664Z,95170.33
2018-08-30T11:35:53.435Z,95171.52
2018-08-30T11:38:20.244Z,95170.41
2018-08-30T11:40:49.414Z,95167.78
2018-08-30T11:43:16.155Z,95168.58
2018-08-30T11:45:42.940Z,95159.72
2018-08-30T11:48:09.590Z,95168.02
2018-08-30T11:50:36.233Z,95167.77
2018-08-30T11:53:02.877Z,95161.80
2018-08-30T11:55:29.537Z,95171.75
2018-08-30T11:57:56.186Z,95172.52
2018-08-30T12:00:24.232Z,95164.11
2018-08-30T12:02:49.521Z,95166.74
2018-08-30T12:05:16.162Z,95167.36
2018-08-30T12:07:42.855Z,95169.16
2018-08-30T12:10:09.558Z,95163.22
2018-08-30T12:12:36.309Z,95160.84
2018-08-30T12:15:02.956Z,95159.98
2018-08-30T12:17:29.689Z,95155.13
2018-08-30T12:19:56.493Z,95150.27
2018-08-30T12:22:24.348Z,95154.78
2018-08-30T12:24:49.871Z,95154.98
2018-08-30T12:27:16.507Z,95152.37
2018-08-30T12:29:44.571Z,95147.20
2018-08-30T12:32:10.072Z,95148.23
2018-08-30T12:34:36.762Z,95146.27
2018-08-30T12:37:03.418Z,95142.61
2018-08-30T12:39:30.060Z,95138.54
2018-08-30T12:42:01.407Z,95145.67
2018-08-30T12:44:23.488Z,95138.98
2018-08-30T12:46:50.134Z,95136.23
2018-08-30T12:49:16.789Z,95137.40
2018-08-30T12:51:43.640Z,95128.42
2018-08-30T12:54:11.371Z,95130.05
2018-08-30T12:56:36.793Z,95136.56
2018-08-30T12:59:03.598Z,95135.88
2018-08-30T13:01:30.352Z,95135.77
2018-08-30T13:03:59.978Z,95132.18
2018-08-30T13:06:28.263Z,95135.67
2018-08-30T13:08:53.412Z,95134.63
2018-08-30T13:11:20.024Z,95134.94
2018-08-30T13:13:47.150Z,95130.22
2018-08-30T13:16:15.310Z,95134.66
2018-08-30T13:18:40.584Z,95127.75
2018-08-30T13:21:07.288Z,95127.73
2018-08-30T13:23:34.121Z,95128.45
2018-08-30T13:26:03.868Z,95125.12
2018-08-30T13:28:30.398Z,95125.51
2018-08-30T13:30:57.218Z,95126.53
2018-08-30T13:33:24.175Z,95122.90
2018-08-30T13:35:50.742Z,95120.41
2018-08-30T13:38:17.876Z,95122.14
2018-08-30T13:40:44.642Z,95126.27
2018-08-30T13:43:11.116Z,95116.50
2018-08-30T13:45:38.035Z,95123.01
2018-08-30T13:48:04.434Z,95129.95
2018-08-30T13:50:31.142Z,95119.02
2018-08-30T13:53:00.940Z,95116.56
2018-08-30T13:55:27.675Z,95115.19
2018-08-30T13:57:55.757Z,95123.27
2018-08-30T14:00:21.350Z,95115.15
2018-08-30T14:02:47.622Z,95125.13
2018-08-30T14:05:14.637Z,95118.41
2018-08-30T14:07:41.144Z,95116.89
2018-08-30T14:10:08.187Z,95122.63
2018-08-30T14:12:34.762Z,95126.11
2018-08-30T14:15:01.580Z,95115.66
2018-08-30T14:17:27.724Z,95123.16
2018-08-30T14:19:54.359Z,95114.24
2018-08-30T14:22:21.142Z,95113.53
2018-08-30T14:24:47.841Z,95120.70
2018-08-30T14:27:14.648Z,95120.52
2018-08-30T14:29:41.221Z,95116.66
2018-08-30T14:34:34.713Z,95116.97
2018-08-30T14:37:01.439Z,95114.23
2018-08-30T14:39:28.182Z,95123.73
2018-08-30T14:41:54.953Z,95122.41
2018-08-30T14:44:21.593Z,95113.96
2018-08-30T14:46:48.247Z,95120.98
2018-08-30T14:49:14.987Z,95121.28
2018-08-30T14:51:41.626Z,95120.97
2018-08-30T14:54:09.746Z,95122.22
2018-08-30T14:56:34.938Z,95123.13
2018-08-30T14:59:01.655Z,95119.16
2018-08-30T15:01:28.281Z,95118.45
2018-08-30T15:03:56.283Z,95117.17
2018-08-30T15:06:21.521Z,95120.41
2018-08-30T15:08:48.206Z,95111.62
2018-08-30T15:11:14.932Z,95118.38
2018-08-30T15:13:41.672Z,95115.39
2018-08-30T15:16:08.204Z,95116.58
2018-08-30T15:18:35.857Z,95117.14
2018-08-30T15:21:02.504Z,95115.50
2018-08-30T15:23:29.318Z,95121.71
2018-08-30T15:25:55.954Z,95126.02
2018-08-30T15:28:22.664Z,95115.63
2018-08-30T15:30:51.531Z,95117.84
2018-08-30T15:33:16.057Z,95120.82
2018-08-30T15:35:42.853Z,95124.77
2018-08-30T15:38:09.568Z,95114.71
2018-08-30T15:40:37.622Z,95115.25
2018-08-30T15:43:02.874Z,95117.59
2018-08-30T15:45:29.559Z,95112.92
2018-08-30T15:47:56.213Z,95118.72
2018-08-30T15:50:23.008Z,95113.47
2018-08-30T15:52:49.624Z,95118.14
2018-08-30T15:55:17.974Z,95122.13
2018-08-30T15:57:43.077Z,95125.19
2018-08-30T16:00:09.742Z,95113.58
2018-08-30T16:02:36.467Z,95111.32
2018-08-30T16:05:03.175Z,95112.96
2018-08-30T16:07:29.834Z,95113.68
2018-08-30T16:09:56.534Z,95114.64
2018-08-30T16:12:23.268Z,95117.50
2018-08-30T16:14:50.011Z,95121.37
2018-08-30T16:17:16.749Z,95119.02
2018-08-30T16:19:43.352Z,95125.38
2018-08-30T16:22:10.047Z,95117.41
2018-08-30T16:24:36.848Z,95124.50
2018-08-30T16:27:03.535Z,95121.66
2018-08-30T16:29:30.332Z,95133.75
2018-08-30T16:31:56.956Z,95138.63
2018-08-30T16:34:23.695Z,95133.66
2018-08-30T16:36:50.295Z,95137.72
2018-08-30T16:39:16.944Z,95135.48
2018-08-30T16:41:44.995Z,95147.06
2018-08-30T16:44:10.351Z,95146.92
2018-08-30T16:46:38.256Z,95143.23
2018-08-30T16:49:03.672Z,95144.06
2018-08-30T16:51:30.286Z,95151.70
2018-08-30T16:53:56.975Z,95149.06
2018-08-30T16:56:23.727Z,95156.70
2018-08-30T16:58:50.322Z,95162.11
2018-08-30T17:01:16.969Z,95156.08
2018-08-30T17:03:48.856Z,95160.31
2018-08-30T17:06:13.396Z,95163.89
2018-08-30T17:08:40.288Z,95165.56
2018-08-30T17:11:06.777Z,95166.72
2018-08-30T17:13:33.414Z,95171.40
2018-08-30T17:16:00.178Z,95169.05
2018-08-30T17:18:26.822Z,95173.12
2018-08-30T17:20:53.460Z,95174.30
2018-08-30T17:23:20.155Z,95178.84
2018-08-30T17:25:46.902Z,95178.64
2018-08-30T17:28:13.586Z,95181.74
2018-08-30T17:30:43.142Z,95181.41
2018-08-30T17:33:12.733Z,95187.98
2018-08-30T17:35:39.417Z,95182.28
2018-08-30T17:38:06.064Z,95185.68
2018-08-30T17:40:32.716Z,95182.13
2018-08-30T17:42:59.353Z,95191.69
2018-08-30T17:45:26.094Z,95196.48
2018-08-30T17:47:52.770Z,95195.19
2018-08-30T17:50:19.449Z,95198.29
2018-08-30T17:52:46.033Z,95201.04
2018-08-30T17:55:12.671Z,95204.48
2018-08-30T17:57:39.360Z,95208.97
2018-08-30T18:00:05.997Z,95221.48
2018-08-30T18:02:34.261Z,95226.57
2018-08-30T18:04:59.309Z,95235.82
2018-08-30T18:07:25.990Z,95231.78
2018-08-30T18:09:52.632Z,95237.86
2018-08-30T18:12:19.283Z,95241.03
2018-08-30T18:14:45.975Z,95242.09
2018-08-30T18:17:12.620Z,95243.48
2018-08-30T18:19:39.272Z,95240.30
2018-08-30T18:22:05.952Z,95243.41
2018-08-30T18:24:32.579Z,95250.27
2018-08-30T18:27:01.011Z,95245.29
2018-08-30T18:29:26.072Z,95247.23
2018-08-30T18:31:52.676Z,95250.81
2018-08-30T18:34:19.361Z,95254.89
2018-08-30T18:36:49.045Z,95254.80
2018-08-30T18:39:16.744Z,95255.75
2018-08-30T18:41:42.368Z,95254.36
2018-08-30T18:44:09.026Z,95254.89
2018-08-30T18:46:35.709Z,95252.01
2018-08-30T18:49:02.375Z,95253.30
2018-08-30T18:51:29.099Z,95248.50
2018-08-30T18:53:55.712Z,95257.48
2018-08-30T18:56:22.374Z,95253.78
2018-08-30T18:58:49.036Z,95260.16
2018-08-30T19:01:15.685Z,95260.70
2018-08-30T19:03:42.351Z,95264.73
2018-08-30T19:06:08.966Z,95262.72
2018-08-30T19:08:35.603Z,95265.94
2018-08-30T19:11:02.254Z,95261.74
2018-08-30T19:13:28.913Z,95262.83
2018-08-30T19:15:57.503Z,95268.45
2018-08-30T19:18:22.284Z,95266.64
2018-08-30T19:20:48.934Z,95262.34
2018-08-30T19:23:15.599Z,95259.92
2018-08-30T19:25:45.141Z,95264.00
2018-08-30T19:28:11.826Z,95265.66
2018-08-30T19:30:38.467Z,95267.28
2018-08-30T19:33:05.199Z,95267.17
2018-08-30T19:35:32.988Z,95267.85
2018-08-30T19:37:58.459Z,95265.97
2018-08-30T19:40:25.172Z,95271.78
2018-08-30T19:42:51.828Z,95267.85
2018-08-30T19:45:23.057Z,95276.03
2018-08-30T19:47:49.352Z,95273.52
2018-08-30T19:50:15.997Z,95274.48
2018-08-30T19:52:42.631Z,95274.36
2018-08-30T19:55:10.626Z,95271.84
2018-08-30T19:57:35.910Z,95269.05
2018-08-30T20:00:02.557Z,95266.25
2018-08-30T20:02:29.349Z,95266.09
2018-08-30T20:04:56.010Z,95262.73
2018-08-30T20:07:22.792Z,95265.88
2018-08-30T20:09:49.520Z,95265.52
2018-08-30T20:12:16.178Z,95265.67
2018-08-30T20:14:42.951Z,95268.58
2018-08-30T20:17:09.589Z,95274.05
2018-08-30T20:19:36.551Z,95275.07
2018-08-30T20:22:03.206Z,95266.27
2018-08-30T20:24:29.838Z,95270.69
2018-08-30T20:26:58.707Z,95269.66
2018-08-30T20:29:23.110Z,95272.92
2018-08-30T20:31:49.823Z,95274.38
2018-08-30T20:34:16.466Z,95279.91
2018-08-30T20:36:45.019Z,95275.20
2018-08-30T20:39:09.795Z,95277.50
2018-08-30T20:41:36.537Z,95274.71
2018-08-30T20:44:03.184Z,95279.48
2018-08-30T20:46:29.882Z,95288.30
2018-08-30T20:48:56.469Z,95295.27
2018-08-30T20:51:24.198Z,95293.35
2018-08-30T20:53:52.659Z,95303.02
2018-08-30T20:56:20.657Z,95302.53
2018-08-30T20:58:45.942Z,95298.41
2018-08-30T21:01:12.752Z,95306.61
2018-08-30T21:03:39.396Z,95302.53
2018-08-30T21:06:09.280Z,95299.73
2018-08-30T21:08:35.918Z,95299.27
2018-08-30T21:11:02.571Z,95306.19
2018-08-30T21:13:29.277Z,95305.50
2018-08-30T21:15:55.959Z,95306.61
2018-08-30T21:18:22.569Z,95309.31
2018-08-30T21:20:49.217Z,95314.45
2018-08-30T21:23:15.849Z,95308.06
2018-08-30T21:25:42.505Z,95307.98
2018-08-30T21:28:09.198Z,95302.70
2018-08-30T21:30:35.839Z,95315.86
2018-08-30T21:33:02.580Z,95307.59
2018-08-30T21:35:29.229Z,95310.39
2018-08-30T21:37:55.962Z,95310.85
2018-08-30T21:40:22.621Z,95313.06
2018-08-30T21:42:49.313Z,95312.31
2018-08-30T21:45:15.996Z,95305.33
2018-08-30T21:47:44.043Z,95306.73
2018-08-30T21:50:10.968Z,95312.11
2018-08-30T21:52:35.934Z,95308.56
2018-08-30T21:55:02.579Z,95314.15
2018-08-30T21:57:29.264Z,95316.00
2018-08-30T21:59:55.917Z,95316.83
2018-08-30T22:02:22.689Z,95318.10
2018-08-30T22:04:49.332Z,95314.94
2018-08-30T22:07:15.998Z,95313.54
2018-08-30T22:09:42.629Z,95321.91
2018-08-30T22:12:09.245Z,95319.82
2018-08-30T22:14:35.895Z,95319.06
2018-08-30T22:17:02.625Z,95320.32
2018-08-30T22:19:29.273Z,95325.03
2018-08-30T22:21:55.911Z,95321.59
2018-08-30T22:24:22.558Z,95325.41
2018-08-30T22:26:49.223Z,95318.43
2018-08-30T22:29:15.855Z,95315.91
2018-08-30T22:31:42.493Z,95319.63
2018-08-30T22:34:09.143Z,95320.47
2018-08-30T22:36:35.790Z,95321.66
2018-08-30T22:39:04.679Z,95329.39
2018-08-30T22:41:29.120Z,95325.61
2018-08-30T22:43:55.763Z,95323.05
2018-08-30T22:46:22.402Z,95325.99
2018-08-30T22:48:49.064Z,95318.75
2018-08-30T22:51:15.742Z,95324.39
2018-08-30T22:53:42.370Z,95321.48
2018-08-30T22:56:09.007Z,95323.52
2018-08-30T22:58:35.694Z,95321.11
2018-08-30T23:01:02.428Z,95321.48
2018-08-30T23:03:29.135Z,95319.45
2018-08-30T23:05:55.810Z,95322.03
2018-08-30T23:08:22.459Z,95317.68
2018-08-30T23:10:51.985Z,95310.38
2018-08-30T23:13:18.664Z,95313.29
2018-08-30T23:15:48.320Z,95309.10
2018-08-30T23:18:14.971Z,95311.14
2018-08-30T23:20:41.613Z,95314.71
2018-08-30T23:23:08.279Z,95311.72
2018-08-30T23:25:34.959Z,95308.29
2018-08-30T23:28:01.646Z,95311.84
2018-08-30T23:30:33.915Z,95309.19
2018-08-30T23:32:58.279Z,95309.10
2018-08-30T23:35:25.262Z,95307.80
2018-08-30T23:37:51.942Z,95308.93
2018-08-30T23:40:18.590Z,95314.83
2018-08-30T23:42:45.325Z,95312.42
2018-08-30T23:45:12.020Z,95308.12
2018-08-30T23:47:38.667Z,95316.48
2018-08-30T23:50:05.305Z,95310.81
2018-08-30T23:52:31.954Z,95312.94
2018-08-30T23:54:58.589Z,95309.66
2018-08-30T23:57:26.475Z,95307.77
2018-08-30T23:59:51.884Z,95308.46
